עמוד ראשי
METAR-TAF:

METAR-TAF

שדות תעופה :

א-טור, מצרים

קו רוחב: 28-14N, קו אורך: 032-37E, גובה: 21מטר

תצפית מזג אוויר נוכחית

הדו"ח נערך לפני 1 שעות ו 37דקות, בשעה 02:00 UTC
רוח 10קשר מכיוון צפון-מערב
טמפרטורת 25 צלסיוס
לחות 83%
לחץ 1004 hPa
ראות 10 קילומטר או יותר
ללא עננים שבסיסם נמוך מ 5000 רגל או קומולונימבוס

METAR: HETR 140200Z 31010KT CAVOK 25/22 Q1004

זמן: 05:37 (03:37 UTC)

תחזית

הדו"ח נערך לפני 4 שעות ו 37דקות, בשעה 23:00 UTC
תחזית בתוקף מ 14 ב 00 UTC עד 15 ב 06 UTC
רוח 10קשר מכיוון צפון-מערב
ראות 10 קילומטר או יותר
ללא עננים שבסיסם נמוך מ 5000 רגל או קומולונימבוס

TAF: HETR 132300Z 1400/1506 31010KT CAVOK

תצפיות ותחזיות מזג אוויר לגבי יותר מ- 4,000 שדות תעופה ברחבי העולם. דוחות METAR ו- TAF.

התחנות הזמינות מסומנות בנקודות צהובות ואדומות על גבי המפה.

העבר את העכבר לנקודה הצבעונית על מנת לראות את שם התחנה.

לאחר מכן, לחץ כדי לראות את תוכן ואת תחזיות מזג האוויר.

כדי לשנות את המפה: לחץ על הכפתורים הירוקים עם הפלוס השחור כדי להתקרב; על הכפתור הירוק עם המקף כדי להתרחק; או בחיצים הירוקים למפות סמוכות.


METAR-TAF: